Time;durP1;ratioP1;P1;durP2;ratioP2;P2;SDS_P1;SDS_P2;PMS_P1;PMS_P2;Temp;Humidity;BMP_temperature;BMP_pressure;BME280_temperature;BME280_humidity;BME280_pressure;Samples;Min_cycle;Max_cycle;Signal;HPM_P1;HPM_P2
2021/09/21 00:01:17;;;;;;;4.27;3.23;;;10.20;99.90;;;;;;6208597;23;20170;-81
2021/09/21 00:03:44;;;;;;;3.70;3.40;;;10.20;99.90;;;;;;6208374;23;20649;-81
2021/09/21 00:06:11;;;;;;;4.40;3.40;;;10.20;99.90;;;;;;6209185;23;20574;-81
2021/09/21 00:08:40;;;;;;;3.37;3.00;;;10.10;99.90;;;;;;6209212;23;20170;-79
2021/09/21 00:11:07;;;;;;;4.17;3.00;;;10.10;99.90;;;;;;6208361;23;20190;-79
2021/09/21 00:13:34;;;;;;;4.03;3.50;;;10.10;99.90;;;;;;6208184;23;20470;-81
2021/09/21 00:16:02;;;;;;;5.03;3.67;;;10.10;99.90;;;;;;6207098;23;20317;-81
2021/09/21 00:18:29;;;;;;;4.73;3.83;;;10.10;99.90;;;;;;6206697;23;20670;-81
2021/09/21 00:20:56;;;;;;;5.77;3.80;;;10.10;99.90;;;;;;6207648;23;20192;-82
2021/09/21 00:23:23;;;;;;;5.03;3.70;;;10.10;99.90;;;;;;6206392;23;20442;-81
2021/09/21 00:25:51;;;;;;;4.83;3.50;;;10.00;99.90;;;;;;6207586;23;20178;-80
2021/09/21 00:28:18;;;;;;;4.77;3.77;;;10.00;99.90;;;;;;6207634;23;20177;-81
2021/09/21 00:30:49;;;;;;;4.63;3.67;;;10.00;99.90;;;;;;6207119;23;20695;-79
2021/09/21 00:33:19;;;;;;;4.93;3.70;;;9.90;99.90;;;;;;6207832;23;20443;-79
2021/09/21 00:35:46;;;;;;;5.30;3.40;;;9.90;99.90;;;;;;6207392;23;20273;-80
2021/09/21 00:38:15;;;;;;;4.50;3.63;;;9.90;99.90;;;;;;6206094;23;20201;-82
2021/09/21 00:40:43;;;;;;;6.03;4.07;;;9.90;99.90;;;;;;6207232;23;20174;-81
2021/09/21 00:43:12;;;;;;;4.53;3.63;;;9.80;99.90;;;;;;6206400;23;20174;-80
2021/09/21 00:45:39;;;;;;;4.63;3.43;;;9.80;99.90;;;;;;6205305;23;20577;-81
2021/09/21 00:48:07;;;;;;;4.30;3.17;;;9.80;99.90;;;;;;6205842;23;20182;-79
2021/09/21 00:50:35;;;;;;;3.70;3.20;;;9.80;99.90;;;;;;6206607;23;20206;-80
2021/09/21 00:53:02;;;;;;;3.90;3.43;;;9.80;99.90;;;;;;6206771;23;20178;-79
2021/09/21 00:55:29;;;;;;;3.83;3.43;;;9.80;99.90;;;;;;6207418;23;20201;-83
2021/09/21 00:57:56;;;;;;;4.23;3.10;;;9.80;99.90;;;;;;6207177;23;20594;-80
2021/09/21 01:00:25;;;;;;;5.37;3.93;;;9.80;99.90;;;;;;6206556;23;20180;-81
2021/09/21 01:02:52;;;;;;;4.50;3.83;;;9.80;99.90;;;;;;6206976;23;20173;-79
2021/09/21 01:05:19;;;;;;;5.67;4.03;;;9.80;99.90;;;;;;6206350;23;20185;-80
2021/09/21 01:07:46;;;;;;;5.30;3.83;;;9.80;99.90;;;;;;6207096;23;20177;-80
2021/09/21 01:10:15;;;;;;;4.87;3.87;;;9.70;99.90;;;;;;6207092;23;20185;-78
2021/09/21 01:12:42;;;;;;;5.70;4.20;;;9.70;99.90;;;;;;6205732;23;20177;-80
2021/09/21 01:15:11;;;;;;;6.30;4.10;;;9.70;99.90;;;;;;6207437;23;20231;-80
2021/09/21 01:17:39;;;;;;;5.60;3.90;;;9.70;99.90;;;;;;6207607;23;20177;-80
2021/09/21 01:20:08;;;;;;;5.07;4.23;;;9.70;99.90;;;;;;6206602;23;20178;-79
2021/09/21 01:22:36;;;;;;;6.23;4.13;;;9.70;99.90;;;;;;6207752;23;20691;-78
2021/09/21 01:25:04;;;;;;;3.77;3.37;;;9.70;99.90;;;;;;6207030;23;20178;-80
2021/09/21 01:27:31;;;;;;;4.53;3.73;;;9.70;99.90;;;;;;6206511;23;20185;-80
2021/09/21 01:29:58;;;;;;;5.07;2.93;;;9.70;99.90;;;;;;6206375;23;20582;-82
2021/09/21 01:32:24;;;;;;;3.67;3.27;;;9.70;99.90;;;;;;6206049;23;20166;-82
2021/09/21 01:34:51;;;;;;;4.47;3.50;;;9.70;99.90;;;;;;6207422;23;20178;-78
2021/09/21 01:37:19;;;;;;;4.07;3.30;;;9.70;99.90;;;;;;6207649;23;20174;-81
2021/09/21 01:39:47;;;;;;;5.20;3.67;;;9.70;99.90;;;;;;6207213;23;20174;-80
2021/09/21 01:42:14;;;;;;;5.23;3.53;;;9.70;99.90;;;;;;6206521;23;20174;-80
2021/09/21 01:44:41;;;;;;;3.43;3.13;;;9.70;99.90;;;;;;6207903;23;20182;-80
2021/09/21 01:47:08;;;;;;;4.10;3.20;;;9.70;99.90;;;;;;6207109;23;20551;-81
2021/09/21 01:49:42;;;;;;;5.20;3.40;;;9.70;99.90;;;;;;6206717;23;20219;-78
2021/09/21 01:52:13;;;;;;;4.50;3.50;;;9.60;99.90;;;;;;6206798;23;20174;-78
2021/09/21 01:55:06;;;;;;;3.60;3.30;;;9.60;99.90;;;;;;6207075;23;20170;-78
2021/09/21 02:00:19;;;;;;;4.10;3.20;;;9.60;99.90;;;;;;6206770;23;20184;-80
2021/09/21 02:02:45;;;;;;;3.67;2.90;;;9.60;99.90;;;;;;6206241;23;20172;-80
2021/09/21 02:05:12;;;;;;;3.17;2.87;;;9.60;99.90;;;;;;6206543;23;20177;-79
2021/09/21 02:07:39;;;;;;;4.53;3.40;;;9.60;99.90;;;;;;6207391;23;20181;-80
2021/09/21 02:10:07;;;;;;;3.57;3.17;;;9.60;99.90;;;;;;6205917;23;20206;-80
2021/09/21 02:12:35;;;;;;;4.07;3.13;;;9.50;99.90;;;;;;6206619;23;20178;-80
2021/09/21 02:15:03;;;;;;;3.40;2.97;;;9.50;99.90;;;;;;6206646;23;20236;-79
2021/09/21 02:17:29;;;;;;;3.77;3.00;;;9.50;99.90;;;;;;6205776;23;20178;-79
2021/09/21 02:19:56;;;;;;;4.67;3.27;;;9.50;99.90;;;;;;6207716;23;20177;-80
2021/09/21 02:22:23;;;;;;;4.73;3.03;;;9.50;99.90;;;;;;6206720;23;20177;-80
2021/09/21 02:24:50;;;;;;;3.73;3.00;;;9.50;99.90;;;;;;6206653;23;20751;-79
2021/09/21 02:27:16;;;;;;;4.23;3.30;;;9.40;99.90;;;;;;6206535;23;20170;-79
2021/09/21 02:29:45;;;;;;;3.67;3.20;;;9.40;99.90;;;;;;6207052;23;20194;-77
2021/09/21 02:32:11;;;;;;;3.93;3.00;;;9.40;99.90;;;;;;6206306;23;20182;-80
2021/09/21 02:34:44;;;;;;;5.27;3.67;;;9.40;99.90;;;;;;6206378;23;20178;-79
2021/09/21 02:37:11;;;;;;;3.90;3.50;;;9.40;99.90;;;;;;6205644;23;20162;-80
2021/09/21 02:39:38;;;;;;;3.47;3.17;;;9.40;99.90;;;;;;6206915;23;20174;-78
2021/09/21 02:42:06;;;;;;;4.07;3.23;;;9.40;99.90;;;;;;6206756;23;20181;-78
2021/09/21 02:44:33;;;;;;;3.50;3.17;;;9.30;99.90;;;;;;6206296;23;20174;-80
2021/09/21 02:47:01;;;;;;;3.30;3.00;;;9.30;99.90;;;;;;6206954;23;20210;-80
2021/09/21 02:49:28;;;;;;;3.90;3.40;;;9.30;99.90;;;;;;6206188;23;20213;-79
2021/09/21 02:51:55;;;;;;;3.73;3.33;;;9.30;99.90;;;;;;6206571;23;20174;-80
2021/09/21 02:54:22;;;;;;;3.27;2.90;;;9.30;99.90;;;;;;6206217;23;20178;-80
2021/09/21 02:56:49;;;;;;;3.50;3.20;;;9.30;99.90;;;;;;6205949;23;20189;-80
2021/09/21 02:59:16;;;;;;;3.87;3.47;;;9.20;99.90;;;;;;6205968;23;20458;-80
2021/09/21 03:01:43;;;;;;;3.97;3.50;;;9.20;99.90;;;;;;6206578;23;20174;-79
2021/09/21 03:04:16;;;;;;;4.67;3.57;;;9.20;99.90;;;;;;6206726;23;20174;-79
2021/09/21 03:06:46;;;;;;;4.03;3.63;;;9.20;99.90;;;;;;6206478;23;20170;-79
2021/09/21 03:09:16;;;;;;;4.43;3.57;;;9.20;99.90;;;;;;6206082;23;20609;-80
2021/09/21 03:11:46;;;;;;;4.53;3.73;;;9.20;99.90;;;;;;6206263;23;20479;-77
2021/09/21 03:17:18;;;;;;;4.00;3.30;;;9.10;99.90;;;;;;6206312;23;20169;-80
2021/09/21 03:19:46;;;;;;;3.83;3.30;;;9.10;99.90;;;;;;6205326;23;20166;-80
2021/09/21 03:22:13;;;;;;;3.50;3.20;;;9.10;99.90;;;;;;6206136;23;20174;-78
2021/09/21 03:24:40;;;;;;;5.53;3.77;;;9.10;99.90;;;;;;6205878;23;20170;-80
2021/09/21 03:27:06;;;;;;;4.00;3.37;;;9.10;99.90;;;;;;6206307;23;20185;-80
2021/09/21 03:29:33;;;;;;;5.50;4.10;;;9.00;99.90;;;;;;6205863;23;20201;-80
2021/09/21 03:32:00;;;;;;;4.50;3.53;;;9.00;99.90;;;;;;6205884;23;20181;-80
2021/09/21 03:34:27;;;;;;;4.47;3.60;;;9.00;99.90;;;;;;6205121;23;20856;-80
2021/09/21 03:36:55;;;;;;;5.00;3.70;;;9.00;99.90;;;;;;6206049;23;20184;-79
2021/09/21 03:39:23;;;;;;;3.83;3.37;;;9.00;99.90;;;;;;6205103;23;20252;-79
2021/09/21 03:41:50;;;;;;;3.90;3.23;;;9.00;99.90;;;;;;6204923;23;20170;-79
2021/09/21 03:44:19;;;;;;;3.57;3.00;;;9.00;99.90;;;;;;6205544;23;20277;-79
2021/09/21 03:46:46;;;;;;;4.10;3.30;;;9.00;99.90;;;;;;6205418;23;20322;-79
2021/09/21 03:49:14;;;;;;;3.43;2.97;;;8.90;99.90;;;;;;6205436;23;20205;-78
2021/09/21 03:51:41;;;;;;;4.40;3.83;;;8.90;99.90;;;;;;6207737;23;20166;-79
2021/09/21 03:54:10;;;;;;;4.83;3.83;;;8.90;99.90;;;;;;6207509;23;20212;-79
2021/09/21 03:56:38;;;;;;;5.50;3.83;;;8.90;99.90;;;;;;6207387;23;20245;-81
2021/09/21 03:59:06;;;;;;;5.13;4.47;;;8.90;99.90;;;;;;6207742;23;20170;-79
2021/09/21 04:01:33;;;;;;;5.93;4.27;;;9.00;99.90;;;;;;6207681;23;20170;-82
2021/09/21 04:04:00;;;;;;;5.90;4.17;;;9.00;99.90;;;;;;6209182;23;20178;-82
2021/09/21 04:06:28;;;;;;;4.63;4.13;;;9.00;99.90;;;;;;6208619;23;20185;-81
2021/09/21 04:08:55;;;;;;;5.20;4.00;;;9.00;99.90;;;;;;6208143;23;20200;-82
2021/09/21 04:11:24;;;;;;;4.23;3.70;;;9.10;99.90;;;;;;6208092;23;20366;-81
2021/09/21 04:13:51;;;;;;;4.53;4.13;;;9.10;99.90;;;;;;6208915;23;20178;-81
2021/09/21 04:16:18;;;;;;;5.17;4.37;;;9.10;99.90;;;;;;6209352;23;20180;-81
2021/09/21 04:18:46;;;;;;;7.40;4.70;;;9.20;99.90;;;;;;6208630;23;20174;-82
2021/09/21 04:21:13;;;;;;;4.90;4.03;;;9.20;99.90;;;;;;6209073;23;20173;-81
2021/09/21 04:23:40;;;;;;;5.00;4.40;;;9.30;99.90;;;;;;6207767;23;20170;-82
2021/09/21 04:26:07;;;;;;;5.83;4.23;;;9.30;99.90;;;;;;6208291;23;20224;-81
2021/09/21 04:28:37;;;;;;;5.37;4.50;;;9.30;99.90;;;;;;6208739;23;20185;-81
2021/09/21 04:31:09;;;;;;;5.53;4.60;;;9.40;99.90;;;;;;6208222;23;20178;-81
2021/09/21 04:33:38;;;;;;;6.87;5.43;;;9.40;99.90;;;;;;6208439;23;20240;-80
2021/09/21 04:36:05;;;;;;;6.27;5.23;;;9.50;99.90;;;;;;6208064;23;20177;-82
2021/09/21 04:38:32;;;;;;;7.50;5.60;;;9.60;99.90;;;;;;6208516;23;20174;-82
2021/09/21 04:40:58;;;;;;;6.77;4.83;;;9.60;99.90;;;;;;6208410;23;20181;-82
2021/09/21 04:43:26;;;;;;;7.20;5.67;;;9.60;99.90;;;;;;6207686;23;20170;-82
2021/09/21 04:45:54;;;;;;;7.10;5.40;;;9.70;99.90;;;;;;6208148;23;20186;-79
2021/09/21 04:48:21;;;;;;;6.60;5.10;;;9.80;99.90;;;;;;6208902;23;20273;-82
2021/09/21 04:50:48;;;;;;;6.70;4.80;;;9.80;99.90;;;;;;6207541;23;20653;-81
2021/09/21 04:53:15;;;;;;;6.90;5.60;;;9.80;99.90;;;;;;6208830;23;20170;-81
2021/09/21 04:55:42;;;;;;;6.73;5.13;;;9.90;99.90;;;;;;6207560;23;20517;-82
2021/09/21 04:58:09;;;;;;;7.13;5.73;;;9.90;99.90;;;;;;6206406;23;20180;-80
2021/09/21 05:00:36;;;;;;;8.17;6.00;;;9.90;99.90;;;;;;6205875;23;20174;-80
2021/09/21 05:03:04;;;;;;;6.63;5.43;;;9.90;99.90;;;;;;6206750;23;20178;-77
2021/09/21 05:05:31;;;;;;;6.63;5.60;;;10.00;99.90;;;;;;6205259;23;20641;-78
2021/09/21 05:07:59;;;;;;;8.33;5.70;;;10.00;99.90;;;;;;6206070;23;20174;-79
2021/09/21 05:10:26;;;;;;;6.43;5.13;;;10.00;99.90;;;;;;6205100;23;20732;-78
2021/09/21 05:12:53;;;;;;;5.90;4.80;;;10.10;99.90;;;;;;6206123;23;20447;-78
2021/09/21 05:15:20;;;;;;;5.67;4.73;;;10.10;99.90;;;;;;6205246;23;20174;-81
2021/09/21 05:17:46;;;;;;;5.50;4.00;;;10.00;99.90;;;;;;6204940;23;20177;-80
2021/09/21 05:20:15;;;;;;;5.03;4.50;;;10.00;99.90;;;;;;6204584;23;20181;-79
2021/09/21 05:22:41;;;;;;;5.60;4.63;;;10.00;99.90;;;;;;6205160;23;20912;-78
2021/09/21 05:25:11;;;;;;;5.23;4.67;;;10.00;99.90;;;;;;6205148;23;20170;-80
2021/09/21 05:27:39;;;;;;;6.20;4.57;;;10.00;99.90;;;;;;6205133;23;20170;-79
2021/09/21 05:30:06;;;;;;;6.53;4.63;;;10.00;99.90;;;;;;6205225;23;20194;-78
2021/09/21 05:32:33;;;;;;;5.13;4.47;;;10.00;99.90;;;;;;6204975;23;20171;-78
2021/09/21 05:35:00;;;;;;;5.83;4.07;;;10.00;99.90;;;;;;6205878;23;20174;-79
2021/09/21 05:37:30;;;;;;;6.80;4.50;;;10.00;99.90;;;;;;6204920;23;20167;-79
2021/09/21 05:39:57;;;;;;;6.53;4.43;;;10.00;99.90;;;;;;6204956;23;20513;-79
2021/09/21 05:42:24;;;;;;;6.23;4.67;;;10.00;99.90;;;;;;6204026;23;20264;-79
2021/09/21 05:44:51;;;;;;;5.33;4.23;;;10.00;99.90;;;;;;6205480;23;20174;-79
2021/09/21 05:47:18;;;;;;;5.03;3.73;;;10.00;99.90;;;;;;6204039;23;20499;-77
2021/09/21 05:49:44;;;;;;;8.80;4.47;;;10.00;99.90;;;;;;6204993;23;20605;-77
2021/09/21 05:52:11;;;;;;;7.63;4.10;;;10.00;99.90;;;;;;6205012;23;20523;-78
2021/09/21 05:54:39;;;;;;;5.77;4.40;;;10.00;99.90;;;;;;6204664;23;20173;-79
2021/09/21 05:57:06;;;;;;;6.37;4.50;;;10.00;99.90;;;;;;6205011;23;20197;-77
2021/09/21 05:59:33;;;;;;;4.60;3.97;;;10.00;99.90;;;;;;6204959;23;20186;-78
2021/09/21 06:02:00;;;;;;;6.50;4.10;;;10.00;99.90;;;;;;6205459;23;20433;-77
2021/09/21 06:04:26;;;;;;;5.10;4.03;;;10.00;99.90;;;;;;6205043;23;20174;-79
2021/09/21 06:06:53;;;;;;;5.37;3.90;;;10.00;99.90;;;;;;6205561;23;20239;-78
2021/09/21 06:09:20;;;;;;;7.00;4.37;;;10.00;99.90;;;;;;6204676;23;20201;-80
2021/09/21 06:11:48;;;;;;;4.77;3.90;;;10.00;99.90;;;;;;6205051;23;20178;-79
2021/09/21 06:14:15;;;;;;;6.17;3.90;;;10.00;99.90;;;;;;6205138;23;20178;-77
2021/09/21 06:16:42;;;;;;;5.20;4.33;;;10.00;99.90;;;;;;6205957;23;20169;-77
2021/09/21 06:19:09;;;;;;;6.03;4.00;;;10.10;99.90;;;;;;6205214;23;20180;-79
2021/09/21 06:21:35;;;;;;;7.47;4.17;;;10.10;99.90;;;;;;6204334;23;20177;-80
2021/09/21 06:24:02;;;;;;;5.43;3.47;;;10.10;99.90;;;;;;6204091;23;20269;-81
2021/09/21 06:26:31;;;;;;;5.17;3.90;;;10.20;99.90;;;;;;6206158;23;20540;-80
2021/09/21 06:28:59;;;;;;;5.50;3.90;;;10.20;99.90;;;;;;6205777;23;20180;-79
2021/09/21 06:31:26;;;;;;;6.60;4.03;;;10.30;99.90;;;;;;6205375;23;20212;-79
2021/09/21 06:33:53;;;;;;;4.27;3.43;;;10.30;99.90;;;;;;6206080;23;20200;-79
2021/09/21 06:36:20;;;;;;;4.70;3.90;;;10.40;99.90;;;;;;6206630;23;20178;-81
2021/09/21 06:38:47;;;;;;;4.60;4.03;;;10.40;99.90;;;;;;6206263;23;20736;-81
2021/09/21 06:41:14;;;;;;;4.87;4.00;;;10.50;99.90;;;;;;6206669;23;20227;-77
2021/09/21 06:43:41;;;;;;;5.30;3.87;;;10.60;99.90;;;;;;6205839;23;20182;-79
2021/09/21 06:46:09;;;;;;;4.77;3.90;;;10.60;99.90;;;;;;6181804;23;20571;-80
2021/09/21 06:48:39;;;;;;;6.03;3.63;;;10.70;99.90;;;;;;6205308;23;20513;-80
2021/09/21 06:51:06;;;;;;;6.30;3.93;;;10.80;99.90;;;;;;6205347;23;20194;-78
2021/09/21 06:53:33;;;;;;;4.00;3.10;;;10.90;99.90;;;;;;6205110;23;20555;-77
2021/09/21 06:56:00;;;;;;;5.50;3.83;;;10.90;99.90;;;;;;6206204;23;20622;-78
2021/09/21 06:58:27;;;;;;;4.50;3.57;;;11.00;99.90;;;;;;6205649;23;20173;-77
2021/09/21 07:00:54;;;;;;;4.10;3.00;;;11.10;99.90;;;;;;6199697;23;20557;-82
2021/09/21 07:03:22;;;;;;;5.27;3.57;;;11.20;99.90;;;;;;6205334;23;20614;-82
2021/09/21 07:05:49;;;;;;;4.97;3.20;;;11.20;99.90;;;;;;6203896;23;20170;-82
2021/09/21 07:08:18;;;;;;;5.83;3.40;;;11.30;99.90;;;;;;6205749;23;20195;-80
2021/09/21 07:10:45;;;;;;;5.53;3.40;;;11.30;99.90;;;;;;6206142;23;20232;-81
2021/09/21 07:13:11;;;;;;;5.07;3.40;;;11.40;99.90;;;;;;6206519;23;20289;-78
2021/09/21 07:15:38;;;;;;;4.20;3.30;;;11.50;99.90;;;;;;6206188;23;20508;-82
2021/09/21 07:18:05;;;;;;;4.80;3.27;;;11.50;99.90;;;;;;6204904;23;20489;-77
2021/09/21 07:20:33;;;;;;;6.80;3.10;;;11.50;99.90;;;;;;6206079;23;20176;-77
2021/09/21 07:23:00;;;;;;;4.23;3.00;;;11.60;99.90;;;;;;6206232;23;20562;-79
2021/09/21 07:25:28;;;;;;;5.73;4.13;;;11.70;99.90;;;;;;6207171;23;20170;-81
2021/09/21 07:27:54;;;;;;;5.33;3.87;;;11.80;99.90;;;;;;6208519;23;20182;-80
2021/09/21 07:30:21;;;;;;;4.97;2.70;;;11.90;99.90;;;;;;6206118;23;20252;-82
2021/09/21 07:32:48;;;;;;;3.40;2.63;;;11.90;99.90;;;;;;6207158;23;20181;-82
2021/09/21 07:35:15;;;;;;;4.50;3.37;;;12.10;99.90;;;;;;6209285;23;20216;-83
2021/09/21 07:37:43;;;;;;;4.53;2.77;;;12.20;99.90;;;;;;6208820;23;20174;-81
2021/09/21 07:40:11;;;;;;;4.70;2.30;;;12.30;99.90;;;;;;6208163;23;20170;-80
2021/09/21 07:42:38;;;;;;;2.90;2.40;;;12.40;99.90;;;;;;6209119;23;20174;-79
2021/09/21 07:45:07;;;;;;;2.57;2.20;;;12.50;99.90;;;;;;6208566;23;20563;-81
2021/09/21 07:47:34;;;;;;;7.53;2.13;;;12.70;99.90;;;;;;6208466;23;20166;-81
2021/09/21 07:50:01;;;;;;;4.20;2.20;;;12.70;99.90;;;;;;6208492;23;20216;-81
2021/09/21 07:52:28;;;;;;;3.27;2.40;;;12.90;99.90;;;;;;6207690;23;20170;-78
2021/09/21 07:54:56;;;;;;;3.07;2.20;;;13.00;99.90;;;;;;6208416;23;20182;-80
2021/09/21 07:57:23;;;;;;;2.90;2.07;;;13.10;99.90;;;;;;6207417;23;20191;-81
2021/09/21 07:59:50;;;;;;;3.50;2.00;;;13.30;99.90;;;;;;6208035;23;20174;-81
2021/09/21 08:02:16;;;;;;;2.50;2.30;;;13.40;99.90;;;;;;6207694;23;20177;-81
2021/09/21 08:04:43;;;;;;;3.67;1.93;;;13.50;99.90;;;;;;6208510;23;20202;-82
2021/09/21 08:07:11;;;;;;;2.67;1.87;;;13.60;99.90;;;;;;6208261;23;20181;-81
2021/09/21 08:09:39;;;;;;;2.13;1.70;;;13.70;99.90;;;;;;6207678;23;20174;-79
2021/09/21 08:12:07;;;;;;;2.90;2.10;;;13.90;99.90;;;;;;6207220;23;20178;-80
2021/09/21 08:14:37;;;;;;;2.00;1.67;;;14.00;99.90;;;;;;6207442;23;20182;-79
2021/09/21 08:17:05;;;;;;;2.60;1.90;;;14.10;99.90;;;;;;6207247;23;20183;-80
2021/09/21 08:19:32;;;;;;;2.80;1.80;;;14.10;99.90;;;;;;6206871;23;20228;-80
2021/09/21 08:21:59;;;;;;;2.20;2.00;;;14.20;99.90;;;;;;6206358;23;20220;-80
2021/09/21 08:24:26;;;;;;;2.47;1.90;;;14.30;99.90;;;;;;6206504;23;20182;-79
2021/09/21 08:26:53;;;;;;;1.90;1.70;;;14.40;99.90;;;;;;6207261;23;20174;-81
2021/09/21 08:29:21;;;;;;;2.10;1.90;;;14.50;99.90;;;;;;6207363;23;20173;-81
2021/09/21 08:31:48;;;;;;;2.13;1.77;;;14.60;99.90;;;;;;6207567;23;20198;-81
2021/09/21 08:34:15;;;;;;;3.70;2.00;;;14.70;99.90;;;;;;6206132;23;20178;-81
2021/09/21 08:36:42;;;;;;;2.67;1.80;;;14.90;99.90;;;;;;6205859;23;20198;-81
2021/09/21 08:39:09;;;;;;;3.63;2.00;;;15.00;99.90;;;;;;6207201;23;20166;-80
2021/09/21 08:41:36;;;;;;;2.73;1.73;;;15.20;99.90;;;;;;6206990;23;20439;-81
2021/09/21 08:44:04;;;;;;;3.37;1.80;;;15.30;99.90;;;;;;6206803;23;20563;-81
2021/09/21 08:46:32;;;;;;;2.30;1.70;;;15.50;99.90;;;;;;6206050;23;20174;-81
2021/09/21 08:48:59;;;;;;;2.50;1.73;;;15.60;99.90;;;;;;6205468;23;20209;-81
2021/09/21 08:51:26;;;;;;;2.10;1.70;;;15.80;99.90;;;;;;6205578;23;20447;-80
2021/09/21 08:53:52;;;;;;;2.27;1.60;;;15.90;99.90;;;;;;6207776;23;20173;-83
2021/09/21 08:56:20;;;;;;;2.17;1.92;;;16.00;99.90;;;;;;6206335;23;20205;-83
2021/09/21 08:58:57;;;;;;;3.88;1.92;;;16.10;99.90;;;;;;6206800;23;20170;-82
2021/09/21 09:01:23;;;;;;;4.15;1.70;;;16.20;99.90;;;;;;6206513;23;20724;-83
2021/09/21 09:03:56;;;;;;;2.22;1.60;;;16.30;99.90;;;;;;6206853;23;20172;-83
2021/09/21 09:06:24;;;;;;;2.05;1.58;;;16.40;99.90;;;;;;6207186;23;20173;-82
2021/09/21 09:08:51;;;;;;;4.32;2.40;;;16.60;99.90;;;;;;6205782;23;20185;-82
2021/09/21 09:11:19;;;;;;;2.30;1.60;;;16.70;99.90;;;;;;6204688;23;20194;-80
2021/09/21 09:13:55;;;;;;;2.47;1.88;;;16.80;99.90;;;;;;6204370;23;20186;-83
2021/09/21 09:16:24;;;;;;;2.40;1.60;;;16.90;99.90;;;;;;6203406;23;20170;-82
2021/09/21 09:19:03;;;;;;;2.88;1.58;;;17.10;99.90;;;;;;6204535;23;20170;-81
2021/09/21 09:21:32;;;;;;;4.05;1.73;;;17.30;99.90;;;;;;6203346;23;20867;-80
2021/09/21 09:24:00;;;;;;;1.98;1.40;;;17.40;99.90;;;;;;6204471;23;20170;-82
2021/09/21 09:26:27;;;;;;;2.17;1.70;;;17.60;99.90;;;;;;6203503;23;20170;-81
2021/09/21 09:28:55;;;;;;;2.20;2.00;;;17.70;99.90;;;;;;6205969;23;20265;-80
2021/09/21 09:31:27;;;;;;;2.47;1.65;;;17.90;99.90;;;;;;6203718;23;20194;-80
2021/09/21 09:34:06;;;;;;;4.05;2.20;;;18.10;99.90;;;;;;6204039;23;20562;-81
2021/09/21 09:36:44;;;;;;;2.80;2.22;;;18.20;99.90;;;;;;6203976;23;20173;-82
2021/09/21 09:39:11;;;;;;;5.78;3.10;;;18.50;99.90;;;;;;6202869;23;20197;-82
2021/09/21 09:41:39;;;;;;;3.95;2.60;;;18.70;99.90;;;;;;6202965;23;20181;-80
2021/09/21 09:44:08;;;;;;;3.47;2.50;;;18.90;99.90;;;;;;6202960;23;20174;-81
2021/09/21 09:46:45;;;;;;;5.70;2.40;;;19.10;99.90;;;;;;6202111;23;20512;-81
2021/09/21 09:49:13;;;;;;;8.82;3.17;;;19.20;99.90;;;;;;6204839;23;20206;-81
2021/09/21 09:51:47;;;;;;;3.33;2.88;;;19.40;99.90;;;;;;6204819;23;20198;-80
2021/09/21 09:54:14;;;;;;;4.57;2.55;;;19.60;99.90;;;;;;6203879;23;20181;-82
2021/09/21 09:56:42;;;;;;;3.80;2.80;;;19.70;99.90;;;;;;6205204;23;20509;-81
2021/09/21 09:59:10;;;;;;;6.30;2.63;;;19.80;99.90;;;;;;6205309;23;20276;-81
2021/09/21 10:01:37;;;;;;;4.10;2.20;;;20.00;99.90;;;;;;6203972;23;20177;-79
2021/09/21 10:04:05;;;;;;;5.07;2.97;;;20.10;99.90;;;;;;6204723;23;20857;-80
2021/09/21 10:06:33;;;;;;;3.65;2.78;;;20.20;99.90;;;;;;6204250;23;20177;-82
2021/09/21 10:09:00;;;;;;;4.43;2.83;;;20.20;99.90;;;;;;6204737;23;20168;-81
2021/09/21 10:11:29;;;;;;;6.03;2.78;;;20.10;99.90;;;;;;6204183;23;20613;-82
2021/09/21 10:13:58;;;;;;;3.92;2.60;;;20.10;99.90;;;;;;6204682;23;20174;-80
2021/09/21 10:16:25;;;;;;;3.97;2.35;;;20.10;99.90;;;;;;6204324;23;20233;-82
2021/09/21 10:18:54;;;;;;;3.88;2.40;;;20.20;99.90;;;;;;6204989;23;20169;-81
2021/09/21 10:21:33;;;;;;;5.65;3.10;;;20.30;99.90;;;;;;6204593;23;20170;-82
2021/09/21 10:24:10;;;;;;;5.15;2.53;;;20.30;99.90;;;;;;6204814;23;20263;-83
2021/09/21 10:26:43;;;;;;;5.82;2.67;;;20.40;99.90;;;;;;6204410;23;20212;-83
2021/09/21 10:29:10;;;;;;;2.63;2.40;;;20.60;99.90;;;;;;6203329;23;20170;-81
2021/09/21 10:31:40;;;;;;;5.85;3.25;;;20.70;99.90;;;;;;6204764;23;20202;-79
2021/09/21 10:34:14;;;;;;;5.20;3.40;;;20.80;99.90;;;;;;6204420;23;20174;-81
2021/09/21 10:36:54;;;;;;;6.53;3.47;;;21.00;99.90;;;;;;6203819;23;20178;-81
2021/09/21 10:39:23;;;;;;;4.82;2.50;;;21.00;99.90;;;;;;6204815;23;20166;-81
2021/09/21 10:41:53;;;;;;;3.85;2.45;;;21.10;99.90;;;;;;6203930;23;20177;-79
2021/09/21 10:44:21;;;;;;;2.95;2.45;;;21.20;99.90;;;;;;6201549;23;20668;-80
2021/09/21 10:46:51;;;;;;;4.53;2.75;;;21.20;99.90;;;;;;6204191;23;20174;-80
2021/09/21 10:49:30;;;;;;;5.25;3.10;;;21.10;99.90;;;;;;6202565;23;20205;-80
2021/09/21 10:52:01;;;;;;;5.20;2.88;;;20.90;99.90;;;;;;6203967;23;20624;-80
2021/09/21 10:54:34;;;;;;;4.70;2.80;;;20.80;99.90;;;;;;6203333;23;20158;-80
2021/09/21 10:57:06;;;;;;;3.92;2.90;;;20.80;99.90;;;;;;6203449;23;20197;-79
2021/09/21 10:59:33;;;;;;;3.30;2.63;;;20.80;99.90;;;;;;6204235;23;20167;-81
2021/09/21 11:02:05;;;;;;;3.45;2.83;;;21.00;99.90;;;;;;6204918;23;20195;-79
2021/09/21 11:04:39;;;;;;;3.60;2.50;;;21.20;99.90;;;;;;6204229;23;20255;-79
2021/09/21 11:07:07;;;;;;;3.88;2.42;;;21.30;99.90;;;;;;6204716;23;20169;-81
2021/09/21 11:09:34;;;;;;;4.20;3.35;;;21.30;99.90;;;;;;6203962;23;20177;-81
2021/09/21 11:12:06;;;;;;;3.95;2.90;;;21.40;99.90;;;;;;6201560;23;20204;-80
2021/09/21 11:14:35;;;;;;;4.95;2.70;;;21.30;99.90;;;;;;6203470;23;20170;-82
2021/09/21 11:17:02;;;;;;;3.20;2.60;;;21.40;99.90;;;;;;6203358;23;20174;-81
2021/09/21 11:19:30;;;;;;;4.45;3.10;;;21.50;99.90;;;;;;6202550;23;20573;-82
2021/09/21 11:22:01;;;;;;;3.10;2.80;;;21.60;99.90;;;;;;6203391;23;20174;-80
2021/09/21 11:24:30;;;;;;;4.57;2.90;;;21.70;99.90;;;;;;6202924;23;20178;-81
2021/09/21 11:26:59;;;;;;;5.07;3.38;;;21.80;99.90;;;;;;6203922;23;20621;-81
2021/09/21 11:29:25;;;;;;;6.10;3.67;;;21.90;99.90;;;;;;6202670;23;20166;-80
2021/09/21 11:31:52;;;;;;;3.78;3.05;;;21.90;99.90;;;;;;6203224;23;20202;-83
2021/09/21 11:34:20;;;;;;;4.15;3.20;;;22.00;99.90;;;;;;6201303;23;20574;-80
2021/09/21 11:36:50;;;;;;;5.03;3.10;;;22.00;99.90;;;;;;6202975;23;20677;-81
2021/09/21 11:39:17;;;;;;;6.05;3.25;;;22.00;99.90;;;;;;6203091;23;20178;-82
2021/09/21 11:41:52;;;;;;;4.85;3.45;;;22.10;99.90;;;;;;6203580;23;20444;-81
2021/09/21 11:44:20;;;;;;;4.63;3.45;;;22.00;99.90;;;;;;6203597;23;20180;-83
2021/09/21 11:46:47;;;;;;;5.47;3.70;;;22.00;99.90;;;;;;6201754;23;20177;-81
2021/09/21 11:49:14;;;;;;;4.32;3.75;;;22.10;99.90;;;;;;6194417;23;20202;-82
2021/09/21 11:51:41;;;;;;;6.63;4.00;;;22.10;99.90;;;;;;6170595;23;20219;-81
2021/09/21 11:54:08;;;;;;;6.40;3.85;;;22.10;99.90;;;;;;6172687;23;20179;-80
2021/09/21 11:56:41;;;;;;;4.00;3.60;;;22.00;99.90;;;;;;6172320;23;20187;-80
2021/09/21 11:59:09;;;;;;;6.57;4.00;;;22.00;99.90;;;;;;6173446;23;20171;-80
2021/09/21 12:01:36;;;;;;;7.28;3.55;;;21.90;99.90;;;;;;6172664;23;20167;-79
2021/09/21 12:04:03;;;;;;;4.88;3.30;;;21.90;99.90;;;;;;6172699;23;20171;-80
2021/09/21 12:06:35;;;;;;;3.83;2.90;;;21.90;99.90;;;;;;6173554;23;20705;-80
2021/09/21 12:09:03;;;;;;;5.38;4.20;;;21.90;99.90;;;;;;6173419;23;20170;-80
2021/09/21 12:11:34;;;;;;;5.28;3.92;;;21.90;99.90;;;;;;6174028;23;20198;-80
2021/09/21 12:14:01;;;;;;;5.20;4.05;;;21.90;99.90;;;;;;6175128;23;20206;-82
2021/09/21 12:16:30;;;;;;;5.35;3.67;;;21.80;99.90;;;;;;6174886;23;20198;-80
2021/09/21 12:18:58;;;;;;;7.40;3.65;;;21.80;99.90;;;;;;6173687;23;20257;-80
2021/09/21 12:21:29;;;;;;;8.60;4.40;;;21.70;99.90;;;;;;6174130;23;20171;-83
2021/09/21 12:23:56;;;;;;;5.22;3.30;;;21.70;99.90;;;;;;6176042;23;20229;-80
2021/09/21 12:26:23;;;;;;;4.05;3.65;;;21.60;99.90;;;;;;6174435;23;20173;-79
2021/09/21 12:28:52;;;;;;;5.47;3.50;;;21.60;99.90;;;;;;6174057;23;20166;-80
2021/09/21 12:31:22;;;;;;;4.85;2.90;;;21.60;99.90;;;;;;6174655;23;20203;-79
2021/09/21 12:33:52;;;;;;;6.00;3.50;;;21.60;99.90;;;;;;6175664;23;20190;-79
2021/09/21 12:36:23;;;;;;;6.80;3.63;;;21.40;99.90;;;;;;6174624;23;20183;-80
2021/09/21 12:38:57;;;;;;;6.03;3.42;;;21.40;99.90;;;;;;6174052;23;20170;-79
2021/09/21 12:41:25;;;;;;;7.25;3.95;;;21.20;99.90;;;;;;6172431;23;20571;-81
2021/09/21 12:43:55;;;;;;;5.95;3.33;;;21.10;99.90;;;;;;6173176;23;20192;-80
2021/09/21 12:46:23;;;;;;;5.97;3.30;;;21.00;99.90;;;;;;6173040;23;20170;-81
2021/09/21 12:48:51;;;;;;;7.35;4.50;;;21.00;99.90;;;;;;6179229;23;20212;-80
2021/09/21 12:51:18;;;;;;;5.40;3.58;;;20.80;99.90;;;;;;6205010;23;20545;-80
2021/09/21 12:53:45;;;;;;;5.47;4.03;;;20.70;99.90;;;;;;6205841;23;20181;-80
2021/09/21 12:56:13;;;;;;;7.35;4.40;;;20.70;99.90;;;;;;6204220;23;20197;-82
2021/09/21 12:58:42;;;;;;;7.65;3.45;;;20.60;99.90;;;;;;6205051;23;20289;-82
2021/09/21 13:01:10;;;;;;;5.07;3.15;;;20.70;99.90;;;;;;6205336;23;20475;-82